createdAt,value
2018-02-02T00:01:34.472Z,10.43
2018-02-02T00:04:02.047Z,10.20
2018-02-02T00:06:29.590Z,9.83
2018-02-02T00:08:57.294Z,9.83
2018-02-02T00:11:24.867Z,9.33
2018-02-02T00:13:52.370Z,9.37
2018-02-02T00:16:19.966Z,9.67
2018-02-02T00:18:47.516Z,10.23
2018-02-02T00:21:15.080Z,10.13
2018-02-02T00:23:42.592Z,9.70
2018-02-02T00:26:10.193Z,9.57
2018-02-02T00:28:37.714Z,9.47
2018-02-02T00:31:05.263Z,9.07
2018-02-02T00:33:32.784Z,9.37
2018-02-02T00:36:00.299Z,9.67
2018-02-02T00:38:27.825Z,9.60
2018-02-02T00:40:55.375Z,8.63
2018-02-02T00:43:22.887Z,9.60
2018-02-02T00:45:50.381Z,8.80
2018-02-02T00:48:17.943Z,8.50
2018-02-02T00:50:51.127Z,8.87
2018-02-02T00:53:18.643Z,9.27
2018-02-02T00:55:46.152Z,8.23
2018-02-02T00:58:13.660Z,8.20
2018-02-02T01:00:41.189Z,8.83
2018-02-02T01:03:08.720Z,8.93
2018-02-02T01:05:36.355Z,8.23
2018-02-02T01:08:03.871Z,8.60
2018-02-02T01:10:31.441Z,7.60
2018-02-02T01:12:58.936Z,7.60
2018-02-02T01:15:26.546Z,7.70
2018-02-02T01:17:54.111Z,7.83
2018-02-02T01:20:21.652Z,7.40
2018-02-02T01:22:49.277Z,7.87
2018-02-02T01:25:16.814Z,6.83
2018-02-02T01:27:44.429Z,7.33
2018-02-02T01:30:11.985Z,6.77
2018-02-02T01:32:39.525Z,7.20
2018-02-02T01:35:07.162Z,7.43
2018-02-02T01:37:34.709Z,6.87
2018-02-02T01:40:02.464Z,7.00
2018-02-02T01:42:30.035Z,7.33
2018-02-02T01:44:57.554Z,7.50
2018-02-02T01:47:25.263Z,6.97
2018-02-02T01:49:52.882Z,7.93
2018-02-02T01:52:20.383Z,6.90
2018-02-02T01:54:47.988Z,7.63
2018-02-02T01:57:15.516Z,7.73
2018-02-02T01:59:43.139Z,7.33
2018-02-02T02:02:10.699Z,7.70
2018-02-02T02:04:38.277Z,7.80
2018-02-02T02:07:05.795Z,8.20
2018-02-02T02:09:33.313Z,8.20
2018-02-02T02:12:00.852Z,8.07
2018-02-02T02:14:28.383Z,8.23
2018-02-02T02:16:55.881Z,8.40
2018-02-02T02:19:23.360Z,9.33
2018-02-02T02:21:50.877Z,8.83
2018-02-02T02:24:18.400Z,8.80
2018-02-02T02:26:45.924Z,9.27
2018-02-02T02:29:13.483Z,8.93
2018-02-02T02:31:41.123Z,9.13
2018-02-02T02:34:08.677Z,8.00
2018-02-02T02:36:36.215Z,8.70
2018-02-02T02:39:03.716Z,8.27
2018-02-02T02:41:31.275Z,8.57
2018-02-02T02:43:58.820Z,9.40
2018-02-02T02:46:26.357Z,9.40
2018-02-02T02:48:53.894Z,8.07
2018-02-02T02:51:21.509Z,9.10
2018-02-02T02:53:49.220Z,8.93
2018-02-02T02:56:16.867Z,8.80
2018-02-02T02:58:44.463Z,9.27
2018-02-02T03:01:11.984Z,9.00
2018-02-02T03:03:39.527Z,8.23
2018-02-02T03:06:07.091Z,8.33
2018-02-02T03:08:34.655Z,8.37
2018-02-02T03:11:02.185Z,8.47
2018-02-02T03:13:29.716Z,8.00
2018-02-02T03:15:57.247Z,8.60
2018-02-02T03:18:24.864Z,8.97
2018-02-02T03:20:52.376Z,8.90
2018-02-02T03:23:20.124Z,9.17
2018-02-02T03:25:47.668Z,9.47
2018-02-02T03:28:15.296Z,8.97
2018-02-02T03:30:42.910Z,9.00
2018-02-02T03:33:10.529Z,9.03
2018-02-02T03:35:38.059Z,8.00
2018-02-02T03:38:05.666Z,9.23
2018-02-02T03:40:33.193Z,8.43
2018-02-02T03:43:00.719Z,8.40
2018-02-02T03:45:28.287Z,8.50
2018-02-02T03:47:55.848Z,8.83
2018-02-02T03:50:23.356Z,8.47
2018-02-02T03:52:50.893Z,9.33
2018-02-02T03:55:18.468Z,9.07
2018-02-02T03:57:46.026Z,10.43
2018-02-02T04:00:13.745Z,10.03
2018-02-02T04:02:41.345Z,9.33
2018-02-02T04:05:08.912Z,9.93
2018-02-02T04:07:36.490Z,8.97
2018-02-02T04:10:03.996Z,9.50
2018-02-02T04:12:31.521Z,8.97
2018-02-02T04:14:59.112Z,9.13
2018-02-02T04:17:26.650Z,10.13
2018-02-02T04:19:54.187Z,9.83
2018-02-02T04:22:21.703Z,8.67
2018-02-02T04:24:49.237Z,8.67
2018-02-02T04:27:16.770Z,8.97
2018-02-02T04:29:44.312Z,7.57
2018-02-02T04:32:11.830Z,8.57
2018-02-02T04:34:41.194Z,7.90
2018-02-02T04:37:08.732Z,7.73
2018-02-02T04:39:36.352Z,8.03
2018-02-02T04:42:03.875Z,7.83
2018-02-02T04:44:33.633Z,7.10
2018-02-02T04:47:01.266Z,7.57
2018-02-02T04:49:28.806Z,7.60
2018-02-02T04:51:56.337Z,7.13
2018-02-02T04:54:23.936Z,6.77
2018-02-02T04:56:51.536Z,6.67
2018-02-02T04:59:19.154Z,6.47
2018-02-02T05:01:46.705Z,6.47
2018-02-02T05:04:14.292Z,6.20
2018-02-02T05:06:41.851Z,6.10
2018-02-02T05:09:09.384Z,6.33
2018-02-02T05:11:36.927Z,5.60
2018-02-02T05:14:04.459Z,5.70
2018-02-02T05:16:31.960Z,5.40
2018-02-02T05:18:59.452Z,5.60
2018-02-02T05:21:26.988Z,5.53
2018-02-02T05:23:54.520Z,6.00
2018-02-02T05:26:22.021Z,6.33
2018-02-02T05:28:49.619Z,5.60
2018-02-02T05:31:17.135Z,5.73
2018-02-02T05:33:44.637Z,5.37
2018-02-02T05:36:12.183Z,5.37
2018-02-02T05:38:39.698Z,6.03
2018-02-02T05:41:07.210Z,5.83
2018-02-02T05:43:34.747Z,6.63
2018-02-02T05:46:02.277Z,6.10
2018-02-02T05:48:29.862Z,6.10
2018-02-02T05:50:57.406Z,6.20
2018-02-02T05:53:24.901Z,5.80
2018-02-02T05:55:52.436Z,6.10
2018-02-02T05:58:19.964Z,6.40
2018-02-02T06:00:47.483Z,6.67
2018-02-02T06:03:14.979Z,6.90
2018-02-02T06:05:42.493Z,6.50
2018-02-02T06:08:10.090Z,5.97
2018-02-02T06:10:37.658Z,6.30
2018-02-02T06:13:05.218Z,6.10
2018-02-02T06:15:32.747Z,6.20
2018-02-02T06:18:00.306Z,5.93
2018-02-02T06:20:27.937Z,6.73
2018-02-02T06:22:55.457Z,5.60
2018-02-02T06:25:23.062Z,6.80
2018-02-02T06:27:50.707Z,6.00
2018-02-02T06:30:18.340Z,6.20
2018-02-02T06:32:45.902Z,5.53
2018-02-02T06:35:13.440Z,5.93
2018-02-02T06:37:41.043Z,5.70
2018-02-02T06:40:08.563Z,5.67
2018-02-02T06:42:36.082Z,6.77
2018-02-02T06:45:03.606Z,5.57
2018-02-02T06:47:31.124Z,5.77
2018-02-02T06:49:58.632Z,6.43
2018-02-02T06:52:26.152Z,6.10
2018-02-02T06:54:53.705Z,6.07
2018-02-02T06:57:21.244Z,5.97
2018-02-02T06:59:48.783Z,5.17
2018-02-02T07:02:16.339Z,6.20
2018-02-02T07:04:43.876Z,6.03
2018-02-02T07:07:11.397Z,5.90
2018-02-02T07:09:39.017Z,6.00
2018-02-02T07:12:06.735Z,5.90
2018-02-02T07:14:34.269Z,6.17
2018-02-02T07:17:01.845Z,5.47
2018-02-02T07:19:29.412Z,6.13
2018-02-02T07:21:57.003Z,6.07
2018-02-02T07:24:24.596Z,5.53
2018-02-02T07:26:52.132Z,5.90
2018-02-02T07:29:19.672Z,5.80
2018-02-02T07:31:47.243Z,6.17
2018-02-02T07:34:14.778Z,5.57
2018-02-02T07:36:42.421Z,6.63
2018-02-02T07:39:10.020Z,5.70
2018-02-02T07:41:37.620Z,5.60
2018-02-02T07:44:05.188Z,5.43
2018-02-02T07:46:32.725Z,5.70
2018-02-02T07:49:00.234Z,5.37
2018-02-02T07:51:27.834Z,5.30
2018-02-02T07:53:55.316Z,5.23
2018-02-02T07:56:22.819Z,5.17
2018-02-02T07:58:50.332Z,5.80
2018-02-02T08:01:19.798Z,5.60
2018-02-02T08:03:47.338Z,5.20
2018-02-02T08:06:14.838Z,5.70
2018-02-02T08:08:42.356Z,5.47
2018-02-02T08:11:09.889Z,5.83
2018-02-02T08:13:37.381Z,6.30
2018-02-02T08:16:04.950Z,6.10
2018-02-02T08:18:32.439Z,5.20
2018-02-02T08:20:59.954Z,5.80
2018-02-02T08:23:27.473Z,5.60
2018-02-02T08:25:55.030Z,6.17
2018-02-02T08:28:22.529Z,5.47
2018-02-02T08:30:50.083Z,5.60
2018-02-02T08:33:17.596Z,5.37
2018-02-02T08:35:45.146Z,5.30
2018-02-02T08:38:12.717Z,4.80
2018-02-02T08:40:40.249Z,5.57
2018-02-02T08:43:07.788Z,5.20
2018-02-02T08:45:35.338Z,4.77
2018-02-02T08:48:02.879Z,5.10
2018-02-02T08:50:30.422Z,5.27
2018-02-02T08:52:57.924Z,5.23
2018-02-02T08:55:25.418Z,5.40
2018-02-02T08:57:52.925Z,5.23
2018-02-02T09:00:20.475Z,4.87
2018-02-02T09:02:47.990Z,5.30
2018-02-02T09:05:15.519Z,5.03
2018-02-02T09:07:43.049Z,5.40
2018-02-02T09:10:10.565Z,5.07
2018-02-02T09:12:38.089Z,5.50
2018-02-02T09:15:05.647Z,4.90
2018-02-02T09:17:33.162Z,5.00
2018-02-02T09:20:00.724Z,5.00
2018-02-02T09:22:28.284Z,4.90
2018-02-02T09:24:55.774Z,4.47
2018-02-02T09:27:22.764Z,4.97
2018-02-02T09:29:50.287Z,5.07
2018-02-02T09:32:17.836Z,4.70
2018-02-02T09:34:45.381Z,4.60
2018-02-02T09:37:12.903Z,4.70
2018-02-02T09:39:40.507Z,4.90
2018-02-02T09:42:08.006Z,4.80
2018-02-02T09:44:35.538Z,5.07
2018-02-02T09:47:03.090Z,4.77
2018-02-02T09:49:30.641Z,4.40
2018-02-02T09:51:58.173Z,4.90
2018-02-02T09:54:25.726Z,5.10
2018-02-02T09:56:53.249Z,5.00
2018-02-02T09:59:20.772Z,5.77
2018-02-02T10:01:48.286Z,5.93
2018-02-02T10:04:15.808Z,5.33
2018-02-02T10:06:43.355Z,4.93
2018-02-02T10:09:10.918Z,5.57
2018-02-02T10:11:38.473Z,5.57
2018-02-02T10:14:05.960Z,5.63
2018-02-02T10:16:33.508Z,5.73
2018-02-02T10:19:01.015Z,5.33
2018-02-02T10:21:28.539Z,4.90
2018-02-02T10:23:56.061Z,5.40
2018-02-02T10:26:23.608Z,5.10
2018-02-02T10:28:51.133Z,4.40
2018-02-02T10:31:18.652Z,4.00
2018-02-02T10:33:46.189Z,4.33
2018-02-02T10:36:13.732Z,4.47
2018-02-02T10:38:41.270Z,3.93
2018-02-02T10:41:08.760Z,4.27
2018-02-02T10:43:36.379Z,4.10
2018-02-02T10:46:03.920Z,4.80
2018-02-02T10:48:31.475Z,4.57
2018-02-02T10:50:59.000Z,4.00
2018-02-02T10:53:26.545Z,4.77
2018-02-02T10:55:54.064Z,4.73
2018-02-02T10:58:21.649Z,4.40
2018-02-02T11:00:54.857Z,4.20
2018-02-02T11:03:23.894Z,4.13
2018-02-02T11:05:51.446Z,4.83
2018-02-02T11:08:18.975Z,3.93
2018-02-02T11:10:46.528Z,4.23
2018-02-02T11:13:14.044Z,4.93
2018-02-02T11:15:41.600Z,5.57
2018-02-02T11:18:09.095Z,4.57
2018-02-02T11:20:36.654Z,5.27
2018-02-02T11:23:04.173Z,4.67
2018-02-02T11:25:31.754Z,5.00
2018-02-02T11:27:59.380Z,5.20
2018-02-02T11:30:26.942Z,4.87
2018-02-02T11:32:54.457Z,4.97
2018-02-02T11:35:22.028Z,4.20
2018-02-02T11:37:49.536Z,4.13
2018-02-02T11:40:17.049Z,5.30
2018-02-02T11:42:44.582Z,4.73
2018-02-02T11:45:12.097Z,4.97
2018-02-02T11:47:39.628Z,4.93
2018-02-02T11:50:07.319Z,4.93
2018-02-02T11:52:34.881Z,4.67
2018-02-02T11:55:02.411Z,5.10
2018-02-02T11:57:29.935Z,4.93
2018-02-02T11:59:57.444Z,5.10
2018-02-02T12:02:25.017Z,5.27
2018-02-02T12:04:52.651Z,5.20
2018-02-02T12:07:20.245Z,5.20
2018-02-02T12:09:47.768Z,5.30
2018-02-02T12:12:15.330Z,5.27
2018-02-02T12:14:42.876Z,5.63
2018-02-02T12:17:10.388Z,5.00
2018-02-02T12:19:37.890Z,5.43
2018-02-02T12:22:05.451Z,4.70
2018-02-02T12:24:38.416Z,5.23
2018-02-02T12:30:16.313Z,5.33
2018-02-02T12:33:00.666Z,5.77
2018-02-02T12:35:34.576Z,5.37
2018-02-02T12:38:02.155Z,5.83
2018-02-02T12:40:29.775Z,6.07
2018-02-02T12:42:57.291Z,6.23
2018-02-02T12:45:24.796Z,6.20
2018-02-02T12:48:01.293Z,6.80
2018-02-02T12:50:35.536Z,6.23
2018-02-02T12:53:03.051Z,6.50
2018-02-02T12:55:30.588Z,6.87
2018-02-02T12:57:58.096Z,7.07
2018-02-02T13:00:25.647Z,6.83
2018-02-02T13:02:53.180Z,7.73
2018-02-02T13:05:20.724Z,7.20
2018-02-02T13:07:48.283Z,7.70
2018-02-02T13:10:15.806Z,8.03
2018-02-02T13:12:43.345Z,8.33
2018-02-02T13:15:10.855Z,7.77
2018-02-02T13:17:38.368Z,8.47
2018-02-02T13:20:05.909Z,8.50
2018-02-02T13:22:33.569Z,8.10
2018-02-02T13:25:01.221Z,8.70
2018-02-02T13:27:28.718Z,8.97
2018-02-02T13:29:56.330Z,9.13
2018-02-02T13:32:23.886Z,8.70
2018-02-02T13:34:51.389Z,9.23
2018-02-02T13:37:18.936Z,9.10
2018-02-02T13:39:46.440Z,8.53
2018-02-02T13:42:13.959Z,9.80
2018-02-02T13:44:41.484Z,9.30
2018-02-02T13:47:08.990Z,9.93
2018-02-02T13:49:36.500Z,8.80
2018-02-02T13:52:04.060Z,9.33
2018-02-02T13:54:31.582Z,8.93
2018-02-02T13:56:59.078Z,9.83
2018-02-02T13:59:26.632Z,8.80
2018-02-02T14:01:54.143Z,9.67
2018-02-02T14:04:21.646Z,9.40
2018-02-02T14:06:49.170Z,8.23
2018-02-02T14:09:16.690Z,8.83
2018-02-02T14:11:44.247Z,8.73
2018-02-02T14:14:11.755Z,9.00
2018-02-02T14:16:39.304Z,8.53
2018-02-02T14:19:06.818Z,8.07
2018-02-02T14:21:34.340Z,8.47
2018-02-02T14:24:01.878Z,8.57
2018-02-02T14:26:29.435Z,8.27
2018-02-02T14:28:56.968Z,8.37
2018-02-02T14:31:24.452Z,8.10
2018-02-02T14:33:52.000Z,7.77
2018-02-02T14:36:19.523Z,7.27
2018-02-02T14:38:47.706Z,8.10
2018-02-02T14:41:15.241Z,8.53
2018-02-02T14:43:42.772Z,8.30
2018-02-02T14:46:10.332Z,7.83
2018-02-02T14:48:38.088Z,7.07
2018-02-02T14:51:05.631Z,7.57
2018-02-02T14:53:33.129Z,7.60
2018-02-02T14:56:01.340Z,7.57
2018-02-02T14:58:28.875Z,7.23
2018-02-02T15:00:57.381Z,6.93
2018-02-02T15:03:24.887Z,6.77
2018-02-02T15:05:52.430Z,7.37
2018-02-02T15:08:20.062Z,7.17
2018-02-02T15:10:47.728Z,6.53
2018-02-02T15:13:15.285Z,6.77
2018-02-02T15:15:42.842Z,6.90
2018-02-02T15:18:10.450Z,6.87
2018-02-02T15:20:37.999Z,6.77
2018-02-02T15:23:09.537Z,7.60
2018-02-02T15:25:37.136Z,7.07
2018-02-02T15:28:04.676Z,7.30
2018-02-02T15:30:32.432Z,7.47
2018-02-02T15:32:59.965Z,7.23
2018-02-02T15:35:29.067Z,8.03
2018-02-02T15:37:56.627Z,7.33
2018-02-02T15:40:24.197Z,7.87
2018-02-02T15:42:51.721Z,8.30
2018-02-02T15:45:19.308Z,7.83
2018-02-02T15:47:47.061Z,7.90
2018-02-02T15:50:15.270Z,7.47
2018-02-02T15:52:43.091Z,7.67
2018-02-02T15:55:10.953Z,6.97
2018-02-02T15:57:38.772Z,9.07
2018-02-02T16:00:06.545Z,8.20
2018-02-02T16:02:34.063Z,8.23
2018-02-02T16:05:01.726Z,8.43
2018-02-02T16:07:29.427Z,7.77
2018-02-02T16:09:57.308Z,8.23
2018-02-02T16:12:25.719Z,8.17
2018-02-02T16:14:53.483Z,8.20
2018-02-02T16:17:21.082Z,8.50
2018-02-02T16:19:49.556Z,9.77
2018-02-02T16:22:17.463Z,9.73
2018-02-02T16:24:45.167Z,9.87
2018-02-02T16:27:12.846Z,10.40
2018-02-02T16:29:40.559Z,11.20
2018-02-02T16:32:08.167Z,10.67
2018-02-02T16:34:36.041Z,11.33
2018-02-02T16:37:03.867Z,11.17
2018-02-02T16:39:31.883Z,11.63
2018-02-02T16:41:59.672Z,11.13
2018-02-02T16:44:27.291Z,12.57
2018-02-02T16:46:55.645Z,13.00
2018-02-02T16:49:23.449Z,13.10
2018-02-02T16:51:51.200Z,13.17
2018-02-02T16:54:19.277Z,13.17
2018-02-02T16:56:47.199Z,12.83
2018-02-02T16:59:15.080Z,13.67
2018-02-02T17:01:42.797Z,12.97
2018-02-02T17:04:10.639Z,13.17
2018-02-02T17:06:38.474Z,13.27
2018-02-02T17:09:06.133Z,13.33
2018-02-02T17:11:34.037Z,13.67
2018-02-02T17:14:01.766Z,14.03
2018-02-02T17:16:29.589Z,15.50
2018-02-02T17:18:57.341Z,14.73
2018-02-02T17:21:25.051Z,14.53
2018-02-02T17:23:52.783Z,13.80
2018-02-02T17:26:20.780Z,14.63
2018-02-02T17:28:48.310Z,15.93
2018-02-02T17:31:16.052Z,14.27
2018-02-02T17:33:43.859Z,14.90
2018-02-02T17:36:11.646Z,14.87
2018-02-02T17:38:39.411Z,14.60
2018-02-02T17:41:07.785Z,15.97
2018-02-02T17:43:35.592Z,15.70
2018-02-02T17:46:03.455Z,15.63
2018-02-02T17:48:31.217Z,15.43
2018-02-02T17:50:59.247Z,17.27
2018-02-02T17:53:27.418Z,16.40
2018-02-02T17:55:55.180Z,15.00
2018-02-02T17:58:22.965Z,14.50
2018-02-02T18:00:57.164Z,15.90
2018-02-02T18:03:25.133Z,14.77
2018-02-02T18:05:52.970Z,15.73
2018-02-02T18:08:20.833Z,15.77
2018-02-02T18:10:48.403Z,14.97
2018-02-02T18:13:15.943Z,15.03
2018-02-02T18:15:43.503Z,15.90
2018-02-02T18:18:11.085Z,15.53
2018-02-02T18:20:38.584Z,15.90
2018-02-02T18:23:06.116Z,14.37
2018-02-02T18:25:33.626Z,13.47
2018-02-02T18:28:01.271Z,14.93
2018-02-02T18:30:28.781Z,13.43
2018-02-02T18:32:56.341Z,15.00
2018-02-02T18:35:32.580Z,15.23
2018-02-02T18:38:00.153Z,14.13
2018-02-02T18:40:27.764Z,15.43
2018-02-02T18:42:55.312Z,14.97
2018-02-02T18:45:22.894Z,14.67
2018-02-02T18:47:50.474Z,14.73
2018-02-02T18:50:18.223Z,14.87
2018-02-02T18:52:45.861Z,14.50
2018-02-02T18:55:13.432Z,14.27
2018-02-02T18:57:42.129Z,14.87
2018-02-02T19:00:09.926Z,13.27
2018-02-02T19:02:37.455Z,12.80
2018-02-02T19:05:05.362Z,13.87
2018-02-02T19:07:33.185Z,14.20
2018-02-02T19:10:00.765Z,15.53
2018-02-02T19:12:28.356Z,14.87
2018-02-02T19:14:56.124Z,14.37
2018-02-02T19:17:23.675Z,13.13
2018-02-02T19:19:51.343Z,14.33
2018-02-02T19:22:21.245Z,13.57
2018-02-02T19:24:49.707Z,12.57
2018-02-02T19:27:18.113Z,13.03
2018-02-02T19:29:45.769Z,13.37
2018-02-02T19:32:13.434Z,13.17
2018-02-02T19:34:41.003Z,13.13
2018-02-02T19:37:09.271Z,13.47
2018-02-02T19:39:37.004Z,13.87
2018-02-02T19:42:05.652Z,14.13
2018-02-02T19:44:33.600Z,15.03
2018-02-02T19:47:02.108Z,14.07
2018-02-02T19:49:29.866Z,14.03
2018-02-02T19:51:57.855Z,13.53
2018-02-02T19:54:25.555Z,13.83
2018-02-02T19:56:54.307Z,14.37
2018-02-02T19:59:22.428Z,13.83
2018-02-02T20:01:50.106Z,14.53
2018-02-02T20:04:17.904Z,14.97
2018-02-02T20:09:22.201Z,15.07
2018-02-02T20:11:49.864Z,15.10
2018-02-02T20:14:17.668Z,16.30
2018-02-02T20:16:46.385Z,15.83
2018-02-02T20:19:13.926Z,15.30
2018-02-02T20:21:41.663Z,16.50
2018-02-02T20:24:09.315Z,16.03
2018-02-02T20:26:36.848Z,17.20
2018-02-02T20:29:05.997Z,17.20
2018-02-02T20:31:33.547Z,17.03
2018-02-02T20:34:01.090Z,17.77
2018-02-02T20:36:28.633Z,18.00
2018-02-02T20:38:56.205Z,18.37
2018-02-02T20:41:23.916Z,17.20
2018-02-02T20:43:51.536Z,18.93
2018-02-02T20:46:19.150Z,17.83
2018-02-02T20:48:46.705Z,17.83
2018-02-02T20:51:14.269Z,17.37
2018-02-02T20:53:41.804Z,17.70
2018-02-02T20:56:09.355Z,17.00
2018-02-02T20:58:37.000Z,17.90
2018-02-02T21:01:04.617Z,16.57
2018-02-02T21:03:32.240Z,17.23
2018-02-02T21:05:59.782Z,16.23
2018-02-02T21:08:27.545Z,16.20
2018-02-02T21:10:55.088Z,14.53
2018-02-02T21:13:22.605Z,15.47
2018-02-02T21:15:50.191Z,14.30
2018-02-02T21:18:17.716Z,14.53
2018-02-02T21:20:45.305Z,13.90
2018-02-02T21:23:12.939Z,13.90
2018-02-02T21:25:40.551Z,15.23
2018-02-02T21:28:08.332Z,14.83
2018-02-02T21:30:35.847Z,13.63
2018-02-02T21:33:04.477Z,14.00
2018-02-02T21:35:32.424Z,14.10
2018-02-02T21:38:00.118Z,13.37
2018-02-02T21:40:27.777Z,14.60
2018-02-02T21:42:55.592Z,13.63
2018-02-02T21:45:23.145Z,14.67
2018-02-02T21:47:51.994Z,14.73
2018-02-02T21:50:19.604Z,14.27
2018-02-02T21:52:47.179Z,14.33
2018-02-02T21:55:15.741Z,13.73
2018-02-02T21:57:43.309Z,14.10
2018-02-02T22:00:10.964Z,14.00
2018-02-02T22:02:38.561Z,14.00
2018-02-02T22:05:06.273Z,12.73
2018-02-02T22:07:33.917Z,14.30
2018-02-02T22:10:01.468Z,13.60
2018-02-02T22:12:28.994Z,14.30
2018-02-02T22:14:56.562Z,12.97
2018-02-02T22:17:24.150Z,13.73
2018-02-02T22:19:51.784Z,15.53
2018-02-02T22:22:19.411Z,13.43
2018-02-02T22:24:46.979Z,14.10
2018-02-02T22:27:14.569Z,15.20
2018-02-02T22:29:42.196Z,14.10
2018-02-02T22:32:09.790Z,15.10
2018-02-02T22:34:37.329Z,13.97
2018-02-02T22:37:05.160Z,14.50
2018-02-02T22:39:32.708Z,15.07
2018-02-02T22:42:00.339Z,15.43
2018-02-02T22:44:27.902Z,16.30
2018-02-02T22:46:55.422Z,15.73
2018-02-02T22:49:22.990Z,16.17
2018-02-02T22:51:50.573Z,15.60
2018-02-02T22:54:18.111Z,15.73
2018-02-02T22:56:45.673Z,17.23
2018-02-02T22:59:13.207Z,15.23
2018-02-02T23:01:40.735Z,15.77
2018-02-02T23:04:08.335Z,15.73
2018-02-02T23:06:36.015Z,15.37
2018-02-02T23:09:03.643Z,16.67
2018-02-02T23:11:31.184Z,16.63
2018-02-02T23:13:58.734Z,16.33
2018-02-02T23:16:26.281Z,15.53
2018-02-02T23:18:53.854Z,17.07
2018-02-02T23:21:21.408Z,16.97
2018-02-02T23:23:48.927Z,16.47
2018-02-02T23:26:16.465Z,15.63
2018-02-02T23:28:44.057Z,16.63
2018-02-02T23:31:11.612Z,16.70
2018-02-02T23:33:39.126Z,16.90
2018-02-02T23:36:06.768Z,16.40
2018-02-02T23:38:34.340Z,16.53
2018-02-02T23:41:01.883Z,16.00
2018-02-02T23:43:29.446Z,15.87
2018-02-02T23:45:57.007Z,15.03
2018-02-02T23:48:24.569Z,15.20
2018-02-02T23:50:52.124Z,16.23
2018-02-02T23:53:19.715Z,15.50
2018-02-02T23:55:47.269Z,15.97
2018-02-02T23:58:14.981Z,15.97
